Data for 03/03/2014

Time Sea-Level Adjusted Pressure Absolute Pressure Temperature Relative Humidity Dew Point   
(mb) (inHg) (mb) (inHg) (C) (F) (%) (C) (F)
00:05 1011 29.85 840 24.81 -3.1 26.5 77 -6.6 20.1
00:10 1010 29.83 840 24.81 -2.5 27.4 76 -6.1 20.9
00:15 1010 29.83 840 24.81 -1.5 29.2 75 -5.4 22.2
00:20 1010 29.83 840 24.81 -1.4 29.5 74 -5.4 22.2
00:25 1011 29.85 840 24.81 -1.2 29.9 75 -5 22.9
00:30 1011 29.85 840 24.81 -0.4 31.3 74 -4.5 23.8
00:35 1011 29.85 840 24.81 -0.6 31 67 -6 21.1
00:40 1011 29.85 840 24.81 -1.7 28.9 75 -5.5 22
00:45 1011 29.85 840 24.81 -0.9 30.3 74 -5 23
00:50 1011 29.85 840 24.81 -1.5 29.3 76 -5.2 22.6
00:55 1011 29.85 840 24.81 -2.1 28.2 77 -5.7 21.8
01:00 1010 29.83 840 24.81 -3 26.7 73 -7.1 19.2
01:05 1010 29.83 840 24.81 -3.7 25.3 68 -8.7 16.3
01:10 1010 29.83 840 24.81 -5 23 75 -8.8 16.2
01:15 1011 29.85 840 24.81 -5.8 21.5 70 -10.4 13.3
01:20 1011 29.85 840 24.81 -6.6 20.1 77 -10 13.9
01:25 1011 29.85 840 24.81 -6.8 19.8 73 -10.8 12.6
01:30 1011 29.85 840 24.81 -7.4 18.7 72 -11.5 11.3
01:35 1011 29.85 840 24.81 -8 17.6 73 -12.1 10.3
01:40 1011 29.85 840 24.81 -9.1 15.6 74 -12.9 8.8
01:45 1011 29.85 840 24.81 -10.2 13.7 74 -13.9 6.9
01:50 1011 29.85 841 24.83 -10.5 13.1 75 -14.1 6.6
01:55 1011 29.85 841 24.83 -10.3 13.4 73 -14.3 6.3
02:00 1011 29.85 841 24.83 -10.2 13.6 73 -14.2 6.4
02:05 1011 29.85 841 24.83 -10 13.9 73 -13.9 6.9
02:10 1011 29.85 841 24.83 -9.9 14.1 75 -13.5 7.7
02:15 1011 29.85 841 24.83 -9.6 14.7 76 -13.1 8.4
02:20 1011 29.85 841 24.83 -9.2 15.5 77 -12.4 9.6
02:25 1011 29.85 841 24.83 -9 15.8 82 -11.6 11.1
02:30 1012 29.88 841 24.83 -8.3 17.1 81 -11 12.2
02:35 1012 29.88 841 24.83 -7.2 19 82 -9.8 14.3
02:40 1011 29.85 841 24.83 -6.2 20.9 81 -8.9 15.9
02:45 1011 29.85 841 24.83 -5.4 22.2 73 -9.5 14.9
02:50 1011 29.85 841 24.83 -5.8 21.6 80 -8.7 16.3
02:55 1011 29.85 841 24.83 -4.4 24.1 72 -8.7 16.3
03:00 1011 29.85 841 24.83 -5.1 22.8 78 -8.3 17
03:05 1012 29.88 841 24.83 -5.1 22.8 82 -7.7 18.1
03:10 1011 29.85 841 24.83 -4 24.8 77 -7.5 18.4
03:15 1011 29.85 841 24.83 -3.8 25.2 78 -7.2 19.1
03:20 1012 29.88 841 24.83 -3.4 25.8 75 -7.2 19.1
03:25 1012 29.88 841 24.83 -3.6 25.4 77 -7.2 19.1
03:30 1012 29.88 841 24.83 -3.4 25.9 74 -7.3 18.8
03:35 1012 29.88 841 24.83 -3.3 26.1 75 -7.2 19
03:40 1012 29.88 841 24.83 -3.3 26.1 76 -7 19.4
03:45 1012 29.88 841 24.83 -3.4 26 76 -7.1 19.3
03:50 1012 29.88 841 24.83 -3.3 26.1 77 -6.8 19.7
03:55 1012 29.88 841 24.83 -3.3 26.1 78 -6.6 20.1
04:00 1012 29.88 841 24.83 -3 26.5 76 -6.7 20
04:05 1012 29.88 841 24.83 -2.5 27.5 74 -6.5 20.3
04:10 1012 29.88 841 24.83 -2.4 27.7 75 -6.2 20.8
04:15 1012 29.88 841 24.83 -2.3 27.9 75 -6.2 20.8
04:20 1012 29.88 841 24.83 -2.5 27.5 75 -6.3 20.7
04:25 1012 29.88 841 24.83 -2.6 27.2 76 -6.4 20.6
04:30 1012 29.88 841 24.83 -2.9 26.9 77 -6.3 20.7
04:35 1012 29.88 841 24.83 -3.3 26 80 -6.3 20.7
04:40 1012 29.88 841 24.83 -3.6 25.4 80 -6.6 20.1
04:45 1012 29.88 841 24.83 -4 24.9 83 -6.5 20.4
04:50 1012 29.88 841 24.83 -4.1 24.7 85 -6.3 20.7
04:55 1012 29.88 841 24.83 -4 24.7 88 -5.8 21.6
05:00 1012 29.88 841 24.83 -3.8 25.2 88 -5.4 22.3
05:05 1012 29.88 841 24.83 -3.6 25.5 90 -5 23
05:10 1012 29.88 841 24.83 -3.2 26.3 90 -4.6 23.7
05:15 1012 29.88 842 24.86 -2.8 27 89 -4.3 24.2
05:20 1012 29.88 842 24.86 -2.5 27.5 89 -4.1 24.6
05:25 1012 29.88 842 24.86 -2.3 27.9 89 -3.9 25
05:30 1012 29.88 842 24.86 -2.2 28.1 89 -3.8 25.2
05:35 1012 29.88 842 24.86 -2 28.5 89 -3.6 25.5
05:40 1013 29.91 842 24.86 -1.7 29 88 -3.5 25.7
05:45 1013 29.91 842 24.86 -1.3 29.7 87 -3.2 26.3
05:50 1013 29.91 842 24.86 -1 30.3 88 -2.8 27
05:55 1013 29.91 842 24.86 -0.7 30.8 87 -2.6 27.4
06:00 1013 29.91 842 24.86 -0.6 30.9 88 -2.4 27.7
06:05 1013 29.91 842 24.86 -0.7 30.7 90 -2.2 28
06:10 1013 29.91 842 24.86 -0.7 30.7 90 -2.2 28
06:15 1013 29.91 842 24.86 -0.9 30.4 90 -2.3 27.9
06:20 1013 29.91 842 24.86 -0.9 30.3 91 -2.2 28
06:25 1013 29.91 842 24.86 -1.2 29.9 91 -2.4 27.6
06:30 1013 29.91 842 24.86 -1.4 29.4 94 -2.3 27.8
06:35 1013 29.91 842 24.86 -1.2 29.8 93 -2.2 28.1
06:40 1013 29.91 842 24.86 -1.4 29.6 94 -2.2 28
06:45 1013 29.91 842 24.86 -1.4 29.6 94 -2.1 28.1
06:50 1013 29.91 843 24.89 -1 30.3 95 -1.6 29.1
06:55 1013 29.91 843 24.89 -0.5 31 94 -1.4 29.6
07:00 1013 29.91 842 24.86 -0.4 31.2 93 -1.4 29.4
07:05 1013 29.91 842 24.86 -0.5 31.1 93 -1.6 29.2
07:10 1013 29.91 842 24.86 -1.1 30 93 -2.1 28.3
07:15 1013 29.91 842 24.86 -1.3 29.6 94 -2.1 28.1
07:20 1013 29.91 842 24.86 -1 30.1 95 -1.8 28.8
07:25 1013 29.91 843 24.89 -0.8 30.5 95 -1.6 29.2
07:30 1013 29.91 843 24.89 -0.6 30.9 95 -1.3 29.6
07:35 1013 29.91 842 24.86 -0.4 31.3 94 -1.3 29.7
07:40 1013 29.91 842 24.86 -0.6 30.9 94 -1.5 29.3
07:45 1013 29.91 842 24.86 -0.8 30.6 94 -1.6 29.2
07:50 1013 29.91 842 24.86 -0.8 30.5 94 -1.6 29
07:55 1013 29.91 842 24.86 -0.8 30.5 95 -1.6 29.2
08:00 1013 29.91 842 24.86 -0.5 31 94 -1.3 29.6
08:05 1013 29.91 842 24.86 -0.6 31 93 -1.6 29.1
08:10 1013 29.91 842 24.86 -0.5 31.1 91 -1.7 28.9
08:15 1013 29.91 842 24.86 -0.6 31 91 -1.9 28.6
08:20 1013 29.91 842 24.86 -0.5 31.1 90 -1.9 28.5
08:25 1013 29.91 842 24.86 -0.5 31.1 89 -2.1 28.2
08:30 1013 29.91 842 24.86 -0.2 31.6 87 -2.2 28.1
08:35 1013 29.91 842 24.86 -0 31.9 86 -2.1 28.2
08:40 1013 29.91 842 24.86 -0 31.9 85 -2.2 28.1
08:45 1013 29.91 842 24.86 -0.1 31.9 85 -2.2 28
08:50 1013 29.91 842 24.86 0 32.1 84 -2.3 27.8
08:55 1013 29.91 842 24.86 0.4 32.7 81 -2.5 27.5
09:00 1013 29.91 842 24.86 0.6 33 82 -2.1 28.2
09:05 1013 29.91 842 24.86 0.2 32.4 83 -2.3 27.9
09:10 1013 29.91 842 24.86 0.1 32.1 84 -2.3 27.8
09:15 1013 29.91 842 24.86 -0.1 31.9 85 -2.3 27.9
09:20 1013 29.91 842 24.86 -0 32 84 -2.4 27.7
09:25 1013 29.91 842 24.86 0.5 33 80 -2.5 27.5
09:30 1013 29.91 842 24.86 1 33.7 80 -2.1 28.2
09:35 1013 29.91 842 24.86 1.1 34.1 77 -2.4 27.6
09:40 1013 29.91 842 24.86 1.8 35.3 68 -3.5 25.7
09:45 1013 29.91 842 24.86 2.6 36.7 65 -3.3 26.1
09:50 1013 29.91 842 24.86 3 37.3 64 -3.2 26.2
09:55 1013 29.91 842 24.86 3.3 37.9 61 -3.6 25.6
10:00 1013 29.91 843 24.89 3.4 38.2 55 -4.7 23.6
10:05 1013 29.91 842 24.86 3.7 38.7 53 -4.9 23.1
10:10 1013 29.91 842 24.86 4.4 39.9 50 -5.1 22.8
10:15 1013 29.91 843 24.89 4.9 40.7 48 -5.2 22.6
10:20 1013 29.91 843 24.89 5.5 41.9 46 -5.1 22.8
10:25 1013 29.91 843 24.89 6.3 43.3 44 -5.2 22.7
10:30 1013 29.91 842 24.86 7.2 44.9 41 -5.2 22.6
10:35 1013 29.91 843 24.89 7.8 46.1 45 -3.3 26.1
10:40 1013 29.91 843 24.89 7.2 44.9 44 -4.1 24.5
10:45 1013 29.91 843 24.89 7.9 46.2 42 -4.1 24.7
10:50 1013 29.91 843 24.89 8.3 46.9 41 -4 24.8
10:55 1013 29.91 843 24.89 8.1 46.6 43 -3.7 25.3
11:00 1013 29.91 843 24.89 8.7 47.7 40 -4.1 24.7
11:05 1014 29.94 843 24.89 8.5 47.2 42 -3.7 25.3
11:10 1014 29.94 843 24.89 7.8 46.1 43 -3.9 25
11:15 1013 29.91 843 24.89 7.4 45.4 45 -3.8 25.2
11:20 1013 29.91 843 24.89 7.2 45 45 -3.8 25.1
11:25 1013 29.91 843 24.89 7.3 45.1 45 -3.8 25.2
11:30 1013 29.91 842 24.86 7.2 45 46 -3.7 25.3
11:35 1013 29.91 842 24.86 7.2 44.9 44 -4.1 24.6
11:40 1013 29.91 842 24.86 7.2 44.9 44 -4.4 24.1
11:45 1013 29.91 842 24.86 7 44.6 43 -4.7 23.6
11:50 1013 29.91 842 24.86 7.8 46 41 -4.7 23.5
11:55 1013 29.91 842 24.86 8 46.4 42 -4.1 24.6
12:00 1013 29.91 842 24.86 8.1 46.5 41 -4.3 24.3
12:05 1013 29.91 842 24.86 8.2 46.8 41 -4.2 24.5
12:10 1013 29.91 842 24.86 8.8 47.8 40 -4.1 24.5
12:15 1013 29.91 842 24.86 9.1 48.4 39 -4.2 24.4
12:20 1013 29.91 842 24.86 9.4 49 38 -4 24.8
12:25 1013 29.91 842 24.86 9.2 48.5 38 -4.4 24.1
12:30 1013 29.91 842 24.86 9.2 48.6 39 -3.9 24.9
12:35 1013 29.91 842 24.86 9 48.3 39 -4.3 24.3
12:40 1013 29.91 842 24.86 9 48.1 38 -4.5 23.9
12:45 1013 29.91 842 24.86 9 48.2 40 -3.7 25.3
12:50 1013 29.91 842 24.86 8.5 47.2 42 -3.8 25.1
12:55 1013 29.91 842 24.86 8.3 47 40 -4.3 24.2
13:00 1013 29.91 842 24.86 8.4 47.1 41 -4.2 24.4
13:05 1013 29.91 842 24.86 8.6 47.4 40 -4.2 24.5
13:10 1013 29.91 842 24.86 8.4 47.2 39 -4.6 23.8
13:15 1013 29.91 842 24.86 8.5 47.2 40 -4.4 24
13:20 1013 29.91 842 24.86 8.4 47.1 40 -4.4 24
13:25 1013 29.91 842 24.86 8.5 47.3 40 -4.4 24
13:30 1013 29.91 842 24.86 8 46.4 42 -4 24.8
13:35 1013 29.91 842 24.86 7.5 45.4 43 -4.2 24.4
13:40 1013 29.91 842 24.86 7 44.5 44 -4.6 23.8
13:45 1013 29.91 842 24.86 7.4 45.4 43 -4.3 24.2
13:50 1013 29.91 842 24.86 7.7 45.8 45 -3.5 25.7
13:55 1013 29.91 842 24.86 7.8 46.1 42 -4.4 24.2
14:00 1013 29.91 842 24.86 8.4 47.1 39 -4.8 23.4
14:05 1013 29.91 842 24.86 8.7 47.6 39 -4.5 23.9
14:10 1013 29.91 842 24.86 9.2 48.5 38 -4.5 23.9
14:15 1013 29.91 842 24.86 9.8 49.6 36 -4.6 23.8
14:20 1012 29.88 842 24.86 8.9 47.9 41 -3.8 25.2
14:25 1012 29.88 842 24.86 8.5 47.3 41 -4.1 24.6
14:30 1012 29.88 842 24.86 8.3 46.9 41 -4.3 24.3
14:35 1012 29.88 842 24.86 9.1 48.3 38 -4.5 24
14:40 1012 29.88 842 24.86 9.3 48.7 37 -4.8 23.3
14:45 1012 29.88 841 24.83 9 48.2 39 -4.4 24.2
14:50 1012 29.88 841 24.83 8.5 47.3 38 -5.2 22.7
14:55 1012 29.88 841 24.83 8.4 47 38 -5.1 22.9
15:00 1012 29.88 841 24.83 8.5 47.3 40 -4.4 24
15:05 1012 29.88 841 24.83 8.9 48 38 -4.6 23.8
15:10 1012 29.88 841 24.83 8.6 47.5 39 -4.5 23.8
15:15 1012 29.88 841 24.83 9 48.2 36 -5.3 22.4
15:20 1012 29.88 841 24.83 9.1 48.5 37 -4.7 23.6
15:25 1012 29.88 841 24.83 9.4 49 37 -4.4 24
15:30 1012 29.88 841 24.83 9.5 49 35 -5.3 22.4
15:35 1012 29.88 841 24.83 9.7 49.5 33 -5.6 21.9
15:40 1011 29.85 841 24.83 9.9 49.8 33 -5.5 22.1
15:45 1011 29.85 841 24.83 9.9 49.9 35 -4.7 23.5
15:50 1011 29.85 841 24.83 9.3 48.8 36 -5 22.9
15:55 1011 29.85 840 24.81 8.9 48 39 -4.4 24.1
16:00 1011 29.85 840 24.81 8 46.4 40 -4.6 23.7
16:05 1011 29.85 840 24.81 7.9 46.3 40 -4.9 23.2
16:10 1011 29.85 840 24.81 7.9 46.2 41 -4.7 23.6
16:15 1011 29.85 840 24.81 7.8 46.1 40 -4.8 23.3
16:20 1011 29.85 840 24.81 8.2 46.7 39 -5 22.9
16:25 1011 29.85 840 24.81 7.9 46.1 41 -4.6 23.6
16:30 1011 29.85 840 24.81 7.5 45.4 41 -5.1 22.8
16:35 1011 29.85 840 24.81 7.7 45.9 38 -5.5 22.1
16:40 1011 29.85 840 24.81 8.2 46.7 37 -5.5 22.1
16:45 1011 29.85 840 24.81 8.4 47.1 36 -5.7 21.8
16:50 1011 29.85 840 24.81 8.1 46.5 38 -5.2 22.6
16:55 1011 29.85 840 24.81 8.3 46.9 36 -5.8 21.5
17:00 1011 29.85 840 24.81 8.5 47.3 37 -5.2 22.6
17:05 1011 29.85 840 24.81 8.9 48 34 -6.1 21.1
17:10 1011 29.85 840 24.81 8.6 47.5 37 -5.4 22.3
17:15 1011 29.85 840 24.81 8.2 46.8 37 -5.7 21.7
17:20 1011 29.85 840 24.81 7.9 46.3 38 -5.7 21.8
17:25 1011 29.85 840 24.81 7.6 45.6 40 -5.3 22.5
17:30 1011 29.85 840 24.81 7.5 45.5 40 -5.4 22.3
17:35 1011 29.85 840 24.81 7.4 45.4 39 -5.5 22.1
17:40 1011 29.85 840 24.81 7.3 45.1 40 -5.4 22.2
17:45 1011 29.85 840 24.81 7.3 45.2 41 -5.1 22.8
17:50 1011 29.85 840 24.81 7.3 45.1 40 -5.3 22.4
17:55 1011 29.85 840 24.81 7.4 45.2 40 -5.3 22.5
18:00 1011 29.85 840 24.81 7.6 45.7 40 -5.2 22.6
18:05 1011 29.85 840 24.81 7.9 46.2 40 -5 23
18:10 1011 29.85 840 24.81 8 46.5 39 -5.2 22.7
18:15 1011 29.85 840 24.81 7.9 46.3 39 -5 23
18:20 1011 29.85 840 24.81 7.5 45.5 40 -5.3 22.4
18:25 1011 29.85 840 24.81 7.4 45.3 41 -5.1 22.8
18:30 1011 29.85 840 24.81 7.5 45.4 40 -5.3 22.5
18:35 1011 29.85 840 24.81 7.6 45.7 40 -5.3 22.5
18:40 1011 29.85 840 24.81 7.6 45.7 39 -5.4 22.3
18:45 1011 29.85 840 24.81 7.5 45.4 41 -5.1 22.9
18:50 1011 29.85 840 24.81 7.3 45.2 40 -5.3 22.4
18:55 1011 29.85 840 24.81 7.2 45 42 -4.8 23.4
19:00 1011 29.85 840 24.81 7 44.6 45 -4 24.9
19:05 1011 29.85 840 24.81 6.7 44.1 49 -3.4 25.9
19:10 1011 29.85 840 24.81 6.3 43.3 49 -3.5 25.7
19:15 1011 29.85 840 24.81 6.1 43 49 -3.8 25.1
19:20 1011 29.85 840 24.81 6.2 43.1 46 -4.5 23.8
19:25 1011 29.85 840 24.81 6.5 43.7 47 -4.1 24.6
19:30 1011 29.85 840 24.81 6.4 43.6 48 -3.8 25.2
19:35 1011 29.85 840 24.81 5.8 42.4 53 -3 26.7
19:40 1011 29.85 840 24.81 5.5 41.9 52 -3.5 25.8
19:45 1011 29.85 840 24.81 5.6 42 53 -3.1 26.4
19:50 1011 29.85 840 24.81 5.6 42.1 50 -3.9 25
19:55 1011 29.85 840 24.81 5.6 42.1 56 -2.5 27.4
20:00 1011 29.85 840 24.81 4.9 40.8 56 -3.2 26.2
20:05 1011 29.85 840 24.81 4.9 40.8 55 -3.4 25.9
20:10 1011 29.85 840 24.81 4.8 40.6 59 -2.5 27.4
20:15 1011 29.85 840 24.81 4.7 40.4 54 -3.9 25.1
20:20 1011 29.85 840 24.81 5 40.9 55 -3.3 26
20:25 1011 29.85 840 24.81 4.8 40.6 55 -3.4 25.9
20:30 1011 29.85 840 24.81 4.7 40.5 59 -2.7 27.2
20:35 1011 29.85 840 24.81 4.3 39.7 59 -3.1 26.5
20:40 1011 29.85 840 24.81 4 39.2 63 -2.5 27.6
20:45 1011 29.85 840 24.81 3.8 38.8 61 -3.1 26.4
20:50 1011 29.85 840 24.81 4.1 39.3 62 -2.6 27.4
20:55 1011 29.85 840 24.81 3.8 38.8 64 -2.4 27.6
21:00 1011 29.85 840 24.81 3.7 38.6 64 -2.4 27.6
21:05 1011 29.85 840 24.81 3.6 38.5 60 -3.4 25.8
21:10 1011 29.85 840 24.81 4 39.2 62 -2.6 27.3
21:15 1011 29.85 840 24.81 3.8 38.8 61 -3 26.6
21:20 1011 29.85 840 24.81 3.9 39 60 -3.2 26.3
21:25 1011 29.85 840 24.81 4.2 39.6 58 -3.2 26.3
21:30 1011 29.85 840 24.81 4.5 40 57 -3.3 26.1
21:35 1011 29.85 840 24.81 4.9 40.8 57 -2.9 26.8
21:40 1011 29.85 840 24.81 4.9 40.8 58 -2.7 27.1
21:45 1011 29.85 840 24.81 4.8 40.7 60 -2.4 27.8
21:50 1011 29.85 840 24.81 4.9 40.7 61 -2 28.4
21:55 1011 29.85 841 24.83 5.4 41.6 61 -1.6 29.1
22:00 1012 29.88 841 24.83 5.4 41.7 65 -0.6 30.9
22:05 1012 29.88 841 24.83 5.1 41.2 67 -0.5 31.2
22:10 1012 29.88 841 24.83 4.9 40.8 71 0.1 32.2
22:15 1012 29.88 842 24.86 4.3 39.8 77 0.6 33.1
22:20 1012 29.88 841 24.83 3.8 38.8 80 0.6 33.1
22:25 1012 29.88 841 24.83 3.4 38.2 82 0.7 33.3
22:30 1012 29.88 841 24.83 3.1 37.6 83 0.6 33
22:35 1012 29.88 841 24.83 3 37.4 84 0.5 33
22:40 1012 29.88 841 24.83 2.9 37.2 85 0.7 33.2
22:45 1012 29.88 841 24.83 2.8 37 86 0.7 33.2
22:50 1012 29.88 841 24.83 2.7 36.8 86 0.7 33.2
22:55 1012 29.88 841 24.83 2.5 36.5 88 0.7 33.3
23:00 1012 29.88 841 24.83 2.4 36.3 88 0.6 33
23:05 1012 29.88 841 24.83 2.3 36.1 89 0.6 33.1
23:10 1012 29.88 841 24.83 2.3 36.1 88 0.5 33
23:15 1012 29.88 841 24.83 2.1 35.8 90 0.6 33
23:20 1012 29.88 841 24.83 2 35.6 90 0.5 32.9
23:25 1012 29.88 841 24.83 1.9 35.4 91 0.6 33
23:30 1012 29.88 841 24.83 1.8 35.2 91 0.5 32.8
23:35 1012 29.88 841 24.83 1.7 35 91 0.4 32.8
23:40 1011 29.85 841 24.83 1.7 35.1 91 0.4 32.7
23:45 1011 29.85 841 24.83 1.8 35.2 90 0.4 32.6
23:50 1011 29.85 840 24.81 1.8 35.2 90 0.4 32.7
23:55 1011 29.85 840 24.81 1.7 35.1 90 0.3 32.6
24:00 1011 29.85 841 24.83 1.8 35.3 91 0.4 32.8